Skip Navigation Links
NOAA logo - Click to go to the NOAA homepage
NOAA's National Weather Service
Alaska Aviation Weather Unit
  NWS logo - Click to go to the NWS homepage
Left Navbar Graphic     21 AKDT = 05 GMT

   
NOAA is celebrating 200 years of science, service, and stewardship. Visit the NOAA 200th celebration Web site to learn more.
USA.gov is the U.S. Government's official Web portal to all Federal, state and local government Web resources and services.
Facebook
NWS on Facebook

Important Change Regarding the AAWU Web Presence

 

Over the last several months, the AAWU has been working to navigate its webpages to a nationally supported server. Security, as well as other needs, have necessitated the change.  In the process, we have made an effort to enhance the functionality of our website, as well as some of our products. As of June 27, 2017, aawu.arh.noaa.gov will be discontinued. The new AAWU web address is weather.gov/aawu. It is now live and will run in-parallel with the old site until it is discontinued. Please send any feedback or questions regarding the new webpages to nws.ar.aawu.webauthors@noaa.gov.  Thank you for your patience during this time of transition.
AAWU Home :: Display TAF Add Bookmark
TAF CYOC 241738Z 2418/2501 26012KT P6SM FEW070 SCT220
    RMK NXT FCST WILL BE ISSUED AT 251445Z=

METAR CYOC 242300Z 24010G17KT 10SM FEW034 FEW080 FEW200 BKN220 22/03 A3000 RMK CU1AC1CI1CI5 CU TR AC TR CI TR FU E-S SLP168 DENSITY ALT 1800FT= METAR CYOC 250000Z 25009G16KT 15SM FEW016 FEW080 BKN200 22/02 A2999 RMK CU1AC1CI5 CU TR AC TR FU SE-S SLP163 DENSITY ALT 1800FT= METAR CYOC 250100Z 26009G15KT 20SM FEW016 BKN200 22/01 A2998 RMK CU1CI6 CU TR CLIMAT 022.2/14.4/0.0MM/LAST STFD OBS/NXT 251300Z/FU SE-S SLP159 DENSITY ALT 1800FT=
 Alaska TAF Map

NOAA's National Weather Service
Alaska Aviation Weather Unit
6930 Sand Lake Road
Anchorage, AK 99502-1845
Disclaimer
Credits
Glossary
Privacy Policy
About Us
Career Opportunities
Contact AAWU Internet Services Site last modified: April, 17th 2012